Flight schools

Flying Academy USA

Flying Academy USA

Miami, Florida        Current temp 18 °C

Flying Academy Europa

Flying Academy Europa

Prague & Brno, Czech Republic        Current temp -0 °C


News

archive

Latest blog post

archive

Latest weather

LKKV

LKKV 171537Z 10002KT 7000 -SN SCT007 OVC036 M00/M01 Q1021 R29/////// RMK REG QNH 1019

LKPR

LKPR 171530Z 21005KT 9999 BKN048 02/M00 Q1022 NOSIG

LKTB

LKTB 171530Z 15003KT 7000 BKN018 BKN037 M01/M03 Q1024 NOSIG